• Join FlightAware (Why Join?)
  • Login
  • US Flag 
04:41AM EDT


 

Airport Tracker/Info


-or-


 

Live Flight TrackerFlight Track Log ✈ N693PD ✈ 16-May-2013 ✈ KSSI - KPDK

Flight Track Log - Related Links

Times and Time Zones

All times are in EDT time to prevent confusion due to time zone crossing. See the N693PD flight status page for this flight to view local times or setup timezone preferences in your user account.

Time Position Orientation Groundspeed Altitude Reporting Facility
EDT Latitude Longitude Course Direction KTS MPH feet Rate Location/Type
03:48PM 31.2069 -81.5031 281° West 172 198 4,500  Level Jacksonville Center
03:49PM 31.1992 -81.5544 260° West 113 130 5,900 1,380 Climbing Jacksonville Center
03:50PM 31.2039 -81.6053 276° West 167 192 7,300 1,440 Climbing Jacksonville Center
03:51PM 31.2231 -81.6633 291° West 174 200 8,900 1,320 Climbing Jacksonville Center
03:52PM 31.2361 -81.7117 288° West 176 203 10,000 1,140 Climbing Jacksonville Center
03:53PM 31.2581 -81.7986 281° West  Level FlightAware Approximate
03:53PM 31.2511 -81.7697 287° West 181 208 11,200  Level Jacksonville Center
03:54PM 31.2706 -81.8281 291° West 181 208 12,400 1,260 Climbing Jacksonville Center
03:55PM 31.2856 -81.8836 288° West 181 208 13,800 1,200 Climbing Jacksonville Center
03:56PM 31.3028 -81.9394 290° West 181 208 14,900 1,080 Climbing Jacksonville Center
03:57PM 31.3197 -81.9928 290° West 181 208 16,000 1,020 Climbing Jacksonville Center
03:58PM 31.3347 -82.0461 288° West 181 208 17,000 900 Climbing Jacksonville Center
03:59PM 31.3478 -82.0994 286° West 181 208 17,900 480 Climbing Jacksonville Center
04:00PM 31.3958 -82.1356 327° Northwest 188 216 18,000  Climbing Jacksonville Center
04:01PM 31.4525 -82.1644 336° Northwest 194 223 18,000  Level Jacksonville Center
04:02PM 31.5111 -82.2028 331° Northwest 225 259 18,000  Level Jacksonville Center
04:03PM 31.5697 -82.2367 334° Northwest 230 265 18,100  Climbing Jacksonville Center
04:04PM 31.6264 -82.2656 337° Northwest 230 265 18,000 -60 Descending Jacksonville Center
04:05PM 31.6911 -82.3067 332° Northwest 225 259 18,000 -240 Level Jacksonville Center
04:06PM 31.7542 -82.3428 334° Northwest 232 267 17,600 -720 Descending Jacksonville Center
04:07PM 31.8169 -82.3792 334° Northwest 242 278 16,600 -840 Descending Jacksonville Center
04:08PM 31.8858 -82.4203 333° Northwest 250 288 16,000 -300 Descending Jacksonville Center
04:09PM 31.9467 -82.4567 333° Northwest 261 300 16,000  Level Jacksonville Center
04:10PM 32.0094 -82.4933 334° Northwest 254 292 16,000  Level Jacksonville Center
04:11PM 32.0700 -82.5322 331° Northwest 247 284 16,000  Level Jacksonville Center
04:12PM 32.1264 -82.5664 333° Northwest 247 284 16,000  Level Jacksonville Center
04:12PM 32.1511 -82.5817 332° Northwest 247 284 16,000  Level Atlanta Center
04:13PM 32.2100 -82.6175 333° Northwest 254 292 16,000  Level Atlanta Center
04:14PM 32.2689 -82.6511 334° Northwest 247 284 16,000  Level Atlanta Center
04:15PM 32.3319 -82.6917 331° Northwest 247 284 16,000  Level Atlanta Center
04:16PM 32.3908 -82.7278 333° Northwest 247 284 16,000  Level Atlanta Center
04:17PM 32.4497 -82.7639 333° Northwest 247 284 16,000  Level Atlanta Center
04:18PM 32.5106 -82.8022 332° Northwest 247 284 16,000  Level Atlanta Center
04:19PM 32.5694 -82.8361 334° Northwest 247 284 16,000  Level Atlanta Center
04:20PM 32.6178 -82.8897 317° Northwest 247 284 16,000  Level Atlanta Center
04:21PM 32.6706 -82.9408 321° Northwest 242 278 16,000  Level Atlanta Center
04:22PM 32.7231 -82.9919 321° Northwest 242 278 16,000  Level Atlanta Center
04:23PM 32.7736 -83.0458 318° Northwest 242 278 16,000 -60 Level Atlanta Center
04:24PM 32.8219 -83.0897 323° Northwest 236 272 15,900 -600 Descending Atlanta Center
04:25PM 32.8789 -83.1483 319° Northwest 242 278 14,900 -960 Descending Atlanta Center
04:26PM 32.9336 -83.2047 319° Northwest 253 291 14,000 -960 Descending Atlanta Center
04:27PM 32.9967 -83.2711 319° Northwest 268 308 13,000 -1,080 Descending Atlanta Center
04:28PM 33.0617 -83.3300 323° Northwest 276 318 11,900 -960 Descending Atlanta Center
04:29PM 33.1119 -83.3867 317° Northwest 270 311 11,100 -900 Descending Atlanta Center
04:30PM 33.1708 -83.4433 321° Northwest 270 311 10,100 -1,020 Descending Atlanta Center
04:31PM 33.2253 -83.5000 319° Northwest 264 304 9,100 -1,020 Descending Atlanta Center
04:32PM 33.2839 -83.5567 321° Northwest 264 304 8,100 -480 Descending Atlanta Center
04:34PM 33.3667 -83.6333 322° Northwest 254 292 8,000 -60 Descending Atlanta TRACON
04:35PM 33.4167 -83.6833 320° Northwest 253 291 8,000 -480 Level Atlanta TRACON
04:36PM 33.4833 -83.7333 328° Northwest 258 297 7,000 -960 Descending Atlanta TRACON
04:37PM 33.5500 -83.7667 337° Northwest 258 297 6,100 -960 Descending Atlanta TRACON
04:38PM 33.6167 -83.8000 337° Northwest 244 281 5,100 -960 Descending Atlanta TRACON
04:39PM 33.6667 -83.8333 331° Northwest 240 276 4,200 -600 Descending Atlanta TRACON
04:40PM 33.7167 -83.8667 331° Northwest 234 269 4,000 -120 Descending Atlanta TRACON
04:41PM 33.7833 -83.9000 337° Northwest 231 266 4,000  Level Atlanta TRACON
04:42PM 33.8333 -83.9333 331° Northwest 232 267 4,000  Level Atlanta TRACON
04:43PM 33.9000 -83.9833 328° Northwest 231 266 4,000 -420 Level Atlanta TRACON
04:44PM 33.9167 -84.0333 292° West 225 259 3,200 -540 Descending Atlanta TRACON
04:45PM 33.9333 -84.1000 287° West 223 257 3,000 -120 Descending Atlanta TRACON
04:46PM 33.9500 -84.1833 284° West 213 245 3,000  Level Atlanta TRACON
04:47PM 33.9667 -84.2333 292° West 168 193 3,000 -360 Level Atlanta TRACON
04:48PM 33.9333 -84.2667 220° Southwest 136 157 2,300 -780 Descending Atlanta TRACON
04:49PM 33.9000 -84.2833 203° Southwest 117 135 1,400 -840 Descending Atlanta TRACON
04:51PM 33.8667 -84.3000 239° Southwest  Level FlightAware Approximate
04:58PM 33.8756 -84.3020 239° Southwest  Level Estimated